sensor_id;sensor_type;location;lat;lon;timestamp;pressure;altitude;pressure_sealevel;temperature;humidity
72486;BME280;60509;47.308;-122.428;2023-05-03T00:01:41;99679.12;;;17.17;26.22
72486;BME280;60509;47.308;-122.428;2023-05-03T00:04:07;99681.28;;;16.68;26.21
72486;BME280;60509;47.308;-122.428;2023-05-03T00:06:33;99685.24;;;15.71;26.61
72486;BME280;60509;47.308;-122.428;2023-05-03T00:08:59;99695.90;;;15.46;26.50
72486;BME280;60509;47.308;-122.428;2023-05-03T00:11:25;99706.58;;;16.07;25.79
72486;BME280;60509;47.308;-122.428;2023-05-03T00:13:50;99712.88;;;16.86;26.51
72486;BME280;60509;47.308;-122.428;2023-05-03T00:16:17;99720.33;;;18.32;25.31
72486;BME280;60509;47.308;-122.428;2023-05-03T00:18:42;99724.33;;;18.07;25.21
72486;BME280;60509;47.308;-122.428;2023-05-03T00:21:08;99722.73;;;17.72;26.35
72486;BME280;60509;47.308;-122.428;2023-05-03T00:23:34;99722.20;;;16.94;25.82
72486;BME280;60509;47.308;-122.428;2023-05-03T00:26:00;99729.23;;;15.66;26.31
72486;BME280;60509;47.308;-122.428;2023-05-03T00:28:26;99730.66;;;15.71;25.83
72486;BME280;60509;47.308;-122.428;2023-05-03T00:30:52;99734.85;;;15.36;25.92
72486;BME280;60509;47.308;-122.428;2023-05-03T00:33:18;99735.14;;;17.11;26.10
72486;BME280;60509;47.308;-122.428;2023-05-03T00:35:44;99736.36;;;18.03;25.16
72486;BME280;60509;47.308;-122.428;2023-05-03T00:38:10;99731.87;;;18.67;24.79
72486;BME280;60509;47.308;-122.428;2023-05-03T00:40:37;99733.48;;;18.88;24.29
72486;BME280;60509;47.308;-122.428;2023-05-03T00:43:02;99733.26;;;17.21;25.39
72486;BME280;60509;47.308;-122.428;2023-05-03T00:45:29;99728.60;;;16.62;25.55
72486;BME280;60509;47.308;-122.428;2023-05-03T00:47:54;99728.14;;;16.26;25.64
72486;BME280;60509;47.308;-122.428;2023-05-03T00:50:20;99731.80;;;15.98;25.49
72486;BME280;60509;47.308;-122.428;2023-05-03T00:52:46;99734.74;;;15.49;25.81
72486;BME280;60509;47.308;-122.428;2023-05-03T00:55:12;99735.06;;;17.16;25.75
72486;BME280;60509;47.308;-122.428;2023-05-03T00:57:37;99738.51;;;18.05;25.00
72486;BME280;60509;47.308;-122.428;2023-05-03T01:00:04;99743.87;;;17.64;25.02
72486;BME280;60509;47.308;-122.428;2023-05-03T01:02:29;99741.43;;;18.15;25.12
72486;BME280;60509;47.308;-122.428;2023-05-03T01:04:55;99740.49;;;17.35;26.25
72486;BME280;60509;47.308;-122.428;2023-05-03T01:07:28;99735.07;;;16.77;25.70
72486;BME280;60509;47.308;-122.428;2023-05-03T01:09:54;99737.69;;;16.27;26.24
72486;BME280;60509;47.308;-122.428;2023-05-03T01:12:26;99740.52;;;15.45;25.91
72486;BME280;60509;47.308;-122.428;2023-05-03T01:14:47;99743.49;;;14.69;26.08
72486;BME280;60509;47.308;-122.428;2023-05-03T01:17:10;99747.12;;;16.32;26.62
72486;BME280;60509;47.308;-122.428;2023-05-03T01:19:35;99749.69;;;17.84;25.12
72486;BME280;60509;47.308;-122.428;2023-05-03T01:22:11;99754.94;;;18.03;25.20
72486;BME280;60509;47.308;-122.428;2023-05-03T01:24:24;99752.52;;;17.99;24.94
72486;BME280;60509;47.308;-122.428;2023-05-03T01:26:48;99752.09;;;17.34;25.88
72486;BME280;60509;47.308;-122.428;2023-05-03T01:29:14;99750.00;;;16.49;25.39
72486;BME280;60509;47.308;-122.428;2023-05-03T01:31:45;99756.00;;;16.01;25.80
72486;BME280;60509;47.308;-122.428;2023-05-03T01:34:19;99762.80;;;14.92;26.20
72486;BME280;60509;47.308;-122.428;2023-05-03T01:36:35;99773.62;;;14.78;25.96
72486;BME280;60509;47.308;-122.428;2023-05-03T01:38:59;99773.94;;;16.30;26.15
72486;BME280;60509;47.308;-122.428;2023-05-03T01:41:24;99773.23;;;17.42;25.17
72486;BME280;60509;47.308;-122.428;2023-05-03T01:43:51;99777.95;;;17.31;25.20
72486;BME280;60509;47.308;-122.428;2023-05-03T01:46:16;99782.95;;;17.92;24.68
72486;BME280;60509;47.308;-122.428;2023-05-03T01:48:41;99784.64;;;18.55;25.03
72486;BME280;60509;47.308;-122.428;2023-05-03T01:51:07;99775.96;;;16.75;25.32
72486;BME280;60509;47.308;-122.428;2023-05-03T01:53:33;99775.20;;;15.40;25.90
72486;BME280;60509;47.308;-122.428;2023-05-03T01:55:59;99779.58;;;15.51;25.83
72486;BME280;60509;47.308;-122.428;2023-05-03T01:58:25;99790.07;;;15.81;26.78
72486;BME280;60509;47.308;-122.428;2023-05-03T02:00:51;99791.52;;;17.08;25.87
72486;BME280;60509;47.308;-122.428;2023-05-03T02:03:17;99793.15;;;17.07;25.10
72486;BME280;60509;47.308;-122.428;2023-05-03T02:05:43;99790.74;;;17.53;24.77
72486;BME280;60509;47.308;-122.428;2023-05-03T02:08:09;99784.89;;;16.99;24.80
72486;BME280;60509;47.308;-122.428;2023-05-03T02:10:34;99778.20;;;17.49;25.31
72486;BME280;60509;47.308;-122.428;2023-05-03T02:13:00;99778.35;;;16.78;26.09
72486;BME280;60509;47.308;-122.428;2023-05-03T02:15:26;99780.91;;;15.64;26.07
72486;BME280;60509;47.308;-122.428;2023-05-03T02:17:52;99786.07;;;15.42;26.62
72486;BME280;60509;47.308;-122.428;2023-05-03T02:20:18;99787.34;;;15.35;27.92
72486;BME280;60509;47.308;-122.428;2023-05-03T02:22:44;99784.95;;;16.53;25.72
72486;BME280;60509;47.308;-122.428;2023-05-03T02:25:10;99786.10;;;16.78;26.43
72486;BME280;60509;47.308;-122.428;2023-05-03T02:27:36;99786.56;;;16.86;26.44
72486;BME280;60509;47.308;-122.428;2023-05-03T02:30:02;99783.39;;;16.98;26.30
72486;BME280;60509;47.308;-122.428;2023-05-03T02:32:27;99783.52;;;17.61;25.16
72486;BME280;60509;47.308;-122.428;2023-05-03T02:34:54;99781.31;;;17.71;26.89
72486;BME280;60509;47.308;-122.428;2023-05-03T02:37:19;99775.98;;;15.57;27.36
72486;BME280;60509;47.308;-122.428;2023-05-03T02:39:45;99778.38;;;14.80;27.80
72486;BME280;60509;47.308;-122.428;2023-05-03T02:42:11;99789.32;;;14.87;27.01
72486;BME280;60509;47.308;-122.428;2023-05-03T02:44:37;99807.59;;;16.21;27.27
72486;BME280;60509;47.308;-122.428;2023-05-03T02:47:03;99816.25;;;17.42;25.73
72486;BME280;60509;47.308;-122.428;2023-05-03T02:49:28;99820.19;;;18.23;25.75
72486;BME280;60509;47.308;-122.428;2023-05-03T02:51:56;99824.86;;;18.54;25.94
72486;BME280;60509;47.308;-122.428;2023-05-03T02:54:20;99828.77;;;18.62;26.19
72486;BME280;60509;47.308;-122.428;2023-05-03T02:56:46;99829.22;;;18.01;26.66
72486;BME280;60509;47.308;-122.428;2023-05-03T02:59:12;99830.65;;;18.60;26.33
72486;BME280;60509;47.308;-122.428;2023-05-03T03:01:41;99832.78;;;18.66;26.75
72486;BME280;60509;47.308;-122.428;2023-05-03T03:04:05;99838.79;;;17.04;27.20
72486;BME280;60509;47.308;-122.428;2023-05-03T03:06:31;99842.35;;;17.85;26.19
72486;BME280;60509;47.308;-122.428;2023-05-03T03:08:56;99845.73;;;17.77;26.55
72486;BME280;60509;47.308;-122.428;2023-05-03T03:11:22;99848.23;;;17.81;26.48
72486;BME280;60509;47.308;-122.428;2023-05-03T03:13:47;99851.11;;;17.95;26.24
72486;BME280;60509;47.308;-122.428;2023-05-03T03:16:13;99852.21;;;16.56;27.40
72486;BME280;60509;47.308;-122.428;2023-05-03T03:18:39;99855.13;;;16.94;27.28
72486;BME280;60509;47.308;-122.428;2023-05-03T03:21:05;99861.08;;;16.55;27.25
72486;BME280;60509;47.308;-122.428;2023-05-03T03:23:31;99864.44;;;18.55;26.15
72486;BME280;60509;47.308;-122.428;2023-05-03T03:25:57;99863.11;;;18.68;25.77
72486;BME280;60509;47.308;-122.428;2023-05-03T03:28:23;99864.74;;;18.46;26.29
72486;BME280;60509;47.308;-122.428;2023-05-03T03:30:49;99871.96;;;18.24;26.55
72486;BME280;60509;47.308;-122.428;2023-05-03T03:33:14;99877.51;;;18.13;26.28
72486;BME280;60509;47.308;-122.428;2023-05-03T03:35:40;99892.78;;;17.86;26.78
72486;BME280;60509;47.308;-122.428;2023-05-03T03:38:07;99908.41;;;18.14;26.70
72486;BME280;60509;47.308;-122.428;2023-05-03T03:40:32;99913.02;;;18.14;26.20
72486;BME280;60509;47.308;-122.428;2023-05-03T03:42:58;99913.90;;;18.20;27.05
72486;BME280;60509;47.308;-122.428;2023-05-03T03:45:24;99911.21;;;18.76;26.21
72486;BME280;60509;47.308;-122.428;2023-05-03T03:47:50;99913.45;;;18.22;26.51
72486;BME280;60509;47.308;-122.428;2023-05-03T03:50:16;99922.27;;;18.26;26.99
72486;BME280;60509;47.308;-122.428;2023-05-03T03:52:42;99922.19;;;18.13;27.14
72486;BME280;60509;47.308;-122.428;2023-05-03T03:55:08;99922.66;;;19.09;27.13
72486;BME280;60509;47.308;-122.428;2023-05-03T03:57:33;99925.33;;;19.01;26.72
72486;BME280;60509;47.308;-122.428;2023-05-03T03:59:59;99925.85;;;18.90;26.91
72486;BME280;60509;47.308;-122.428;2023-05-03T04:02:26;99933.67;;;18.50;27.22
72486;BME280;60509;47.308;-122.428;2023-05-03T04:04:51;99938.89;;;18.67;26.82
72486;BME280;60509;47.308;-122.428;2023-05-03T04:07:17;99946.67;;;18.58;27.53
72486;BME280;60509;47.308;-122.428;2023-05-03T04:09:43;99943.20;;;17.72;27.53
72486;BME280;60509;47.308;-122.428;2023-05-03T04:12:09;99942.33;;;17.02;27.55
72486;BME280;60509;47.308;-122.428;2023-05-03T04:14:35;99958.11;;;16.98;29.26
72486;BME280;60509;47.308;-122.428;2023-05-03T04:17:01;99958.96;;;17.62;28.78
72486;BME280;60509;47.308;-122.428;2023-05-03T04:19:26;99960.73;;;17.51;28.49
72486;BME280;60509;47.308;-122.428;2023-05-03T04:21:52;99965.01;;;18.10;28.63
72486;BME280;60509;47.308;-122.428;2023-05-03T04:24:18;99971.33;;;17.82;28.58
72486;BME280;60509;47.308;-122.428;2023-05-03T04:26:44;99977.65;;;17.85;29.30
72486;BME280;60509;47.308;-122.428;2023-05-03T04:29:11;99983.44;;;17.45;29.38
72486;BME280;60509;47.308;-122.428;2023-05-03T04:31:36;99981.36;;;17.49;29.91
72486;BME280;60509;47.308;-122.428;2023-05-03T04:34:02;99989.24;;;16.34;31.23
72486;BME280;60509;47.308;-122.428;2023-05-03T04:36:28;99996.76;;;16.39;30.98
72486;BME280;60509;47.308;-122.428;2023-05-03T04:38:54;100004.94;;;16.68;31.11
72486;BME280;60509;47.308;-122.428;2023-05-03T04:41:20;100001.95;;;16.64;31.29
72486;BME280;60509;47.308;-122.428;2023-05-03T04:43:46;100013.64;;;16.65;31.28
72486;BME280;60509;47.308;-122.428;2023-05-03T04:46:12;100012.05;;;17.04;31.10
72486;BME280;60509;47.308;-122.428;2023-05-03T04:48:37;100020.30;;;16.77;31.16
72486;BME280;60509;47.308;-122.428;2023-05-03T04:51:04;100025.55;;;16.25;31.58
72486;BME280;60509;47.308;-122.428;2023-05-03T04:53:30;100029.41;;;16.55;31.31
72486;BME280;60509;47.308;-122.428;2023-05-03T04:55:56;100035.28;;;16.78;31.09
72486;BME280;60509;47.308;-122.428;2023-05-03T04:58:21;100047.51;;;16.83;31.07
72486;BME280;60509;47.308;-122.428;2023-05-03T05:00:47;100045.97;;;16.01;31.77
72486;BME280;60509;47.308;-122.428;2023-05-03T05:03:13;100050.15;;;16.63;31.24
72486;BME280;60509;47.308;-122.428;2023-05-03T05:05:39;100061.79;;;16.51;31.00
72486;BME280;60509;47.308;-122.428;2023-05-03T05:08:05;100078.84;;;16.57;31.07
72486;BME280;60509;47.308;-122.428;2023-05-03T05:10:31;100080.23;;;17.01;30.80
72486;BME280;60509;47.308;-122.428;2023-05-03T05:12:57;100077.79;;;17.11;30.45
72486;BME280;60509;47.308;-122.428;2023-05-03T05:15:23;100076.03;;;16.94;30.53
72486;BME280;60509;47.308;-122.428;2023-05-03T05:17:49;100080.37;;;17.29;30.26
72486;BME280;60509;47.308;-122.428;2023-05-03T05:20:14;100090.23;;;17.17;30.24
72486;BME280;60509;47.308;-122.428;2023-05-03T05:22:40;100097.23;;;17.29;30.15
72486;BME280;60509;47.308;-122.428;2023-05-03T05:25:07;100102.46;;;16.89;30.35
72486;BME280;60509;47.308;-122.428;2023-05-03T05:27:31;100105.26;;;16.17;30.88
72486;BME280;60509;47.308;-122.428;2023-05-03T05:29:57;100102.00;;;16.17;30.92
72486;BME280;60509;47.308;-122.428;2023-05-03T05:32:23;100107.74;;;16.19;30.88
72486;BME280;60509;47.308;-122.428;2023-05-03T05:34:49;100112.11;;;16.57;30.74
72486;BME280;60509;47.308;-122.428;2023-05-03T05:37:15;100123.86;;;16.42;30.73
72486;BME280;60509;47.308;-122.428;2023-05-03T05:39:41;100128.09;;;15.92;30.70
72486;BME280;60509;47.308;-122.428;2023-05-03T05:42:07;100123.84;;;16.33;30.37
72486;BME280;60509;47.308;-122.428;2023-05-03T05:44:33;100126.50;;;16.69;30.34
72486;BME280;60509;47.308;-122.428;2023-05-03T05:46:59;100128.08;;;16.77;30.17
72486;BME280;60509;47.308;-122.428;2023-05-03T05:49:25;100129.34;;;17.33;29.72
72486;BME280;60509;47.308;-122.428;2023-05-03T05:51:51;100135.76;;;16.85;29.81
72486;BME280;60509;47.308;-122.428;2023-05-03T05:54:16;100135.57;;;16.54;30.19
72486;BME280;60509;47.308;-122.428;2023-05-03T05:56:42;100135.18;;;16.91;29.91
72486;BME280;60509;47.308;-122.428;2023-05-03T05:59:08;100149.47;;;16.74;30.06
72486;BME280;60509;47.308;-122.428;2023-05-03T06:01:34;100165.20;;;16.22;30.52
72486;BME280;60509;47.308;-122.428;2023-05-03T06:04:00;100175.48;;;16.30;30.39
72486;BME280;60509;47.308;-122.428;2023-05-03T06:06:26;100180.18;;;16.24;30.41
72486;BME280;60509;47.308;-122.428;2023-05-03T06:08:52;100181.15;;;16.17;30.58
72486;BME280;60509;47.308;-122.428;2023-05-03T06:11:18;100185.24;;;15.99;30.64
72486;BME280;60509;47.308;-122.428;2023-05-03T06:13:44;100201.90;;;15.58;30.87
72486;BME280;60509;47.308;-122.428;2023-05-03T06:16:10;100202.83;;;15.73;31.10
72486;BME280;60509;47.308;-122.428;2023-05-03T06:18:35;100208.77;;;15.83;31.01
72486;BME280;60509;47.308;-122.428;2023-05-03T06:21:01;100201.07;;;15.68;31.14
72486;BME280;60509;47.308;-122.428;2023-05-03T06:23:27;100210.59;;;15.51;31.05
72486;BME280;60509;47.308;-122.428;2023-05-03T06:25:53;100211.20;;;15.42;31.03
72486;BME280;60509;47.308;-122.428;2023-05-03T06:28:19;100217.28;;;15.68;30.82
72486;BME280;60509;47.308;-122.428;2023-05-03T06:30:48;100220.33;;;15.34;31.02
72486;BME280;60509;47.308;-122.428;2023-05-03T06:33:12;100228.30;;;14.62;31.67
72486;BME280;60509;47.308;-122.428;2023-05-03T06:35:37;100233.09;;;15.00;31.36
72486;BME280;60509;47.308;-122.428;2023-05-03T06:38:03;100242.54;;;15.61;30.77
72486;BME280;60509;47.308;-122.428;2023-05-03T06:40:29;100246.04;;;14.25;31.76
72486;BME280;60509;47.308;-122.428;2023-05-03T06:42:55;100250.26;;;15.79;30.51
72486;BME280;60509;47.308;-122.428;2023-05-03T06:45:21;100257.34;;;16.38;29.90
72486;BME280;60509;47.308;-122.428;2023-05-03T06:47:47;100260.72;;;16.54;29.93
72486;BME280;60509;47.308;-122.428;2023-05-03T06:50:13;100264.55;;;16.82;29.58
72486;BME280;60509;47.308;-122.428;2023-05-03T06:52:39;100263.06;;;16.97;29.60
72486;BME280;60509;47.308;-122.428;2023-05-03T06:55:06;100259.07;;;16.83;29.61
72486;BME280;60509;47.308;-122.428;2023-05-03T06:57:31;100259.51;;;16.82;29.46
72486;BME280;60509;47.308;-122.428;2023-05-03T06:59:57;100254.87;;;17.09;29.41
72486;BME280;60509;47.308;-122.428;2023-05-03T07:02:23;100247.43;;;17.09;29.41
72486;BME280;60509;47.308;-122.428;2023-05-03T07:04:49;100246.26;;;17.26;29.17
72486;BME280;60509;47.308;-122.428;2023-05-03T07:07:15;100247.31;;;17.01;29.21
72486;BME280;60509;47.308;-122.428;2023-05-03T07:09:41;100246.74;;;17.10;29.46
72486;BME280;60509;47.308;-122.428;2023-05-03T07:12:07;100251.01;;;17.21;29.30
72486;BME280;60509;47.308;-122.428;2023-05-03T07:14:32;100252.76;;;17.01;29.30
72486;BME280;60509;47.308;-122.428;2023-05-03T07:16:58;100255.60;;;17.42;29.09
72486;BME280;60509;47.308;-122.428;2023-05-03T07:19:24;100258.21;;;17.12;29.26
72486;BME280;60509;47.308;-122.428;2023-05-03T07:21:50;100258.52;;;16.74;29.38
72486;BME280;60509;47.308;-122.428;2023-05-03T07:24:16;100257.54;;;16.79;29.65
72486;BME280;60509;47.308;-122.428;2023-05-03T07:26:42;100258.35;;;16.77;29.59
72486;BME280;60509;47.308;-122.428;2023-05-03T07:29:08;100252.60;;;16.38;29.47
72486;BME280;60509;47.308;-122.428;2023-05-03T07:31:34;100253.12;;;17.16;29.45
72486;BME280;60509;47.308;-122.428;2023-05-03T07:34:00;100253.95;;;16.96;29.31
72486;BME280;60509;47.308;-122.428;2023-05-03T07:36:26;100252.75;;;16.68;29.54
72486;BME280;60509;47.308;-122.428;2023-05-03T07:38:52;100256.14;;;16.63;29.56
72486;BME280;60509;47.308;-122.428;2023-05-03T07:41:18;100260.61;;;17.02;29.51
72486;BME280;60509;47.308;-122.428;2023-05-03T07:43:44;100260.86;;;16.89;29.42
72486;BME280;60509;47.308;-122.428;2023-05-03T07:46:10;100266.49;;;16.94;29.47
72486;BME280;60509;47.308;-122.428;2023-05-03T07:48:36;100269.90;;;17.01;29.49
72486;BME280;60509;47.308;-122.428;2023-05-03T07:51:03;100273.51;;;16.71;29.40
72486;BME280;60509;47.308;-122.428;2023-05-03T07:53:28;100272.73;;;16.78;29.56
72486;BME280;60509;47.308;-122.428;2023-05-03T07:55:54;100266.49;;;16.60;29.64
72486;BME280;60509;47.308;-122.428;2023-05-03T07:58:20;100260.18;;;17.17;29.49
72486;BME280;60509;47.308;-122.428;2023-05-03T08:00:45;100257.80;;;17.07;29.60
72486;BME280;60509;47.308;-122.428;2023-05-03T08:03:11;100258.71;;;16.78;29.69
72486;BME280;60509;47.308;-122.428;2023-05-03T08:05:37;100258.47;;;16.86;29.62
72486;BME280;60509;47.308;-122.428;2023-05-03T08:08:03;100261.71;;;16.83;29.75
72486;BME280;60509;47.308;-122.428;2023-05-03T08:10:29;100259.79;;;16.75;29.59
72486;BME280;60509;47.308;-122.428;2023-05-03T08:12:55;100257.77;;;16.91;29.68
72486;BME280;60509;47.308;-122.428;2023-05-03T08:15:21;100261.09;;;16.68;29.69
72486;BME280;60509;47.308;-122.428;2023-05-03T08:17:47;100262.80;;;16.95;29.62
72486;BME280;60509;47.308;-122.428;2023-05-03T08:20:13;100266.41;;;16.74;29.56
72486;BME280;60509;47.308;-122.428;2023-05-03T08:22:39;100265.60;;;16.66;29.52
72486;BME280;60509;47.308;-122.428;2023-05-03T08:25:06;100263.91;;;16.55;29.74
72486;BME280;60509;47.308;-122.428;2023-05-03T08:27:31;100265.22;;;16.86;29.53
72486;BME280;60509;47.308;-122.428;2023-05-03T08:29:57;100263.91;;;16.66;29.63
72486;BME280;60509;47.308;-122.428;2023-05-03T08:32:22;100263.35;;;16.77;29.70
72486;BME280;60509;47.308;-122.428;2023-05-03T08:34:49;100271.49;;;16.66;29.49
72486;BME280;60509;47.308;-122.428;2023-05-03T08:37:14;100273.05;;;16.97;29.41
72486;BME280;60509;47.308;-122.428;2023-05-03T08:39:40;100268.74;;;16.79;29.42
72486;BME280;60509;47.308;-122.428;2023-05-03T08:42:07;100267.10;;;16.37;29.13
72486;BME280;60509;47.308;-122.428;2023-05-03T08:44:36;100274.07;;;16.85;29.28
72486;BME280;60509;47.308;-122.428;2023-05-03T08:46:58;100267.97;;;16.54;29.43
72486;BME280;60509;47.308;-122.428;2023-05-03T08:49:25;100260.17;;;16.50;29.40
72486;BME280;60509;47.308;-122.428;2023-05-03T08:51:51;100254.70;;;16.79;29.46
72486;BME280;60509;47.308;-122.428;2023-05-03T08:54:16;100249.31;;;16.63;29.49
72486;BME280;60509;47.308;-122.428;2023-05-03T08:56:42;100244.65;;;16.61;29.46
72486;BME280;60509;47.308;-122.428;2023-05-03T08:59:08;100240.23;;;16.78;29.49
72486;BME280;60509;47.308;-122.428;2023-05-03T09:01:35;100244.01;;;16.65;29.44
72486;BME280;60509;47.308;-122.428;2023-05-03T09:03:59;100245.24;;;16.70;29.46
72486;BME280;60509;47.308;-122.428;2023-05-03T09:06:25;100242.20;;;16.71;29.50
72486;BME280;60509;47.308;-122.428;2023-05-03T09:08:52;100238.96;;;16.92;29.45
72486;BME280;60509;47.308;-122.428;2023-05-03T09:11:21;100235.95;;;16.65;29.66
72486;BME280;60509;47.308;-122.428;2023-05-03T09:13:43;100233.90;;;16.41;29.64
72486;BME280;60509;47.308;-122.428;2023-05-03T09:16:09;100231.22;;;16.37;29.61
72486;BME280;60509;47.308;-122.428;2023-05-03T09:18:36;100226.81;;;16.52;29.58
72486;BME280;60509;47.308;-122.428;2023-05-03T09:21:01;100227.56;;;16.64;29.58
72486;BME280;60509;47.308;-122.428;2023-05-03T09:23:30;100225.07;;;16.37;29.60
72486;BME280;60509;47.308;-122.428;2023-05-03T09:25:53;100220.63;;;16.80;29.61
72486;BME280;60509;47.308;-122.428;2023-05-03T09:28:20;100216.45;;;16.23;29.71
72486;BME280;60509;47.308;-122.428;2023-05-03T09:30:46;100216.58;;;16.67;29.88
72486;BME280;60509;47.308;-122.428;2023-05-03T09:33:11;100213.74;;;16.56;30.10
72486;BME280;60509;47.308;-122.428;2023-05-03T09:35:37;100211.05;;;16.45;30.09
72486;BME280;60509;47.308;-122.428;2023-05-03T09:38:03;100210.87;;;16.46;30.10
72486;BME280;60509;47.308;-122.428;2023-05-03T09:40:29;100213.66;;;16.14;30.09
72486;BME280;60509;47.308;-122.428;2023-05-03T09:43:09;100210.41;;;16.01;30.06
72486;BME280;60509;47.308;-122.428;2023-05-03T09:45:23;100205.81;;;16.33;30.04
72486;BME280;60509;47.308;-122.428;2023-05-03T09:47:49;100208.21;;;16.51;29.75
72486;BME280;60509;47.308;-122.428;2023-05-03T09:50:13;100208.43;;;16.52;29.73
72486;BME280;60509;47.308;-122.428;2023-05-03T09:52:39;100209.03;;;16.65;29.96
72486;BME280;60509;47.308;-122.428;2023-05-03T09:55:05;100200.74;;;16.63;29.76
72486;BME280;60509;47.308;-122.428;2023-05-03T09:57:30;100196.85;;;16.39;29.69
72486;BME280;60509;47.308;-122.428;2023-05-03T09:59:56;100197.26;;;16.53;29.75
72486;BME280;60509;47.308;-122.428;2023-05-03T10:02:22;100192.77;;;16.36;29.62
72486;BME280;60509;47.308;-122.428;2023-05-03T10:04:51;100192.26;;;16.58;29.56
72486;BME280;60509;47.308;-122.428;2023-05-03T10:07:17;100193.81;;;16.55;29.52
72486;BME280;60509;47.308;-122.428;2023-05-03T10:09:43;100194.74;;;16.51;29.53
72486;BME280;60509;47.308;-122.428;2023-05-03T10:12:08;100198.35;;;16.49;29.70
72486;BME280;60509;47.308;-122.428;2023-05-03T10:14:32;100197.63;;;16.29;29.60
72486;BME280;60509;47.308;-122.428;2023-05-03T10:17:01;100196.55;;;16.24;29.78
72486;BME280;60509;47.308;-122.428;2023-05-03T10:19:28;100194.88;;;16.49;29.98
72486;BME280;60509;47.308;-122.428;2023-05-03T10:21:58;100191.25;;;16.22;30.00
72486;BME280;60509;47.308;-122.428;2023-05-03T10:24:16;100189.70;;;16.35;29.78
72486;BME280;60509;47.308;-122.428;2023-05-03T10:26:43;100189.25;;;16.46;29.75
72486;BME280;60509;47.308;-122.428;2023-05-03T10:29:44;100188.71;;;16.11;30.02
72486;BME280;60509;47.308;-122.428;2023-05-03T10:31:49;100191.19;;;16.00;30.16
72486;BME280;60509;47.308;-122.428;2023-05-03T10:34:00;100190.51;;;16.10;29.96
72486;BME280;60509;47.308;-122.428;2023-05-03T10:36:26;100185.95;;;16.22;30.04
72486;BME280;60509;47.308;-122.428;2023-05-03T10:38:52;100185.29;;;15.90;30.03
72486;BME280;60509;47.308;-122.428;2023-05-03T10:41:24;100181.88;;;16.13;30.00
72486;BME280;60509;47.308;-122.428;2023-05-03T10:43:44;100181.74;;;16.10;29.89
72486;BME280;60509;47.308;-122.428;2023-05-03T10:46:31;100176.52;;;16.27;29.88
72486;BME280;60509;47.308;-122.428;2023-05-03T10:48:35;100172.64;;;16.16;29.96
72486;BME280;60509;47.308;-122.428;2023-05-03T10:51:29;100174.55;;;16.13;30.00
72486;BME280;60509;47.308;-122.428;2023-05-03T10:53:36;100174.17;;;15.86;30.04
72486;BME280;60509;47.308;-122.428;2023-05-03T10:56:00;100171.49;;;16.05;30.08
72486;BME280;60509;47.308;-122.428;2023-05-03T10:58:19;100165.06;;;15.93;30.02
72486;BME280;60509;47.308;-122.428;2023-05-03T11:00:45;100160.91;;;15.48;30.01
72486;BME280;60509;47.308;-122.428;2023-05-03T11:03:27;100163.30;;;16.09;29.89
72486;BME280;60509;47.308;-122.428;2023-05-03T11:05:38;100162.69;;;15.63;29.87
72486;BME280;60509;47.308;-122.428;2023-05-03T11:08:10;100164.33;;;15.99;29.78
72486;BME280;60509;47.308;-122.428;2023-05-03T11:10:29;100169.72;;;15.81;29.84
72486;BME280;60509;47.308;-122.428;2023-05-03T11:12:54;100170.29;;;15.80;29.82
72486;BME280;60509;47.308;-122.428;2023-05-03T11:15:20;100171.65;;;15.87;29.76
72486;BME280;60509;47.308;-122.428;2023-05-03T11:17:46;100170.72;;;15.86;29.68
72486;BME280;60509;47.308;-122.428;2023-05-03T11:20:13;100171.25;;;15.88;29.62
72486;BME280;60509;47.308;-122.428;2023-05-03T11:22:38;100168.24;;;16.09;29.48
72486;BME280;60509;47.308;-122.428;2023-05-03T11:25:05;100168.62;;;15.72;29.57
72486;BME280;60509;47.308;-122.428;2023-05-03T11:27:30;100165.85;;;15.73;29.89
72486;BME280;60509;47.308;-122.428;2023-05-03T11:29:56;100163.89;;;16.25;31.04
72486;BME280;60509;47.308;-122.428;2023-05-03T11:32:26;100164.99;;;16.19;32.26
72486;BME280;60509;47.308;-122.428;2023-05-03T11:34:48;100164.00;;;16.34;32.02
72486;BME280;60509;47.308;-122.428;2023-05-03T11:37:14;100165.73;;;16.42;31.92
72486;BME280;60509;47.308;-122.428;2023-05-03T11:39:41;100164.99;;;16.16;32.33
72486;BME280;60509;47.308;-122.428;2023-05-03T11:42:06;100167.59;;;15.69;32.37
72486;BME280;60509;47.308;-122.428;2023-05-03T11:44:32;100165.99;;;15.79;32.15
72486;BME280;60509;47.308;-122.428;2023-05-03T11:46:58;100165.32;;;15.57;32.18
72486;BME280;60509;47.308;-122.428;2023-05-03T11:49:23;100165.97;;;15.65;31.96
72486;BME280;60509;47.308;-122.428;2023-05-03T11:51:50;100164.26;;;15.77;31.95
72486;BME280;60509;47.308;-122.428;2023-05-03T11:54:16;100165.48;;;15.64;31.93
72486;BME280;60509;47.308;-122.428;2023-05-03T11:56:41;100160.69;;;15.50;31.75
72486;BME280;60509;47.308;-122.428;2023-05-03T11:59:08;100156.92;;;15.79;31.55
72486;BME280;60509;47.308;-122.428;2023-05-03T12:01:33;100155.34;;;15.75;31.53
72486;BME280;60509;47.308;-122.428;2023-05-03T12:04:00;100153.08;;;15.85;31.32
72486;BME280;60509;47.308;-122.428;2023-05-03T12:06:26;100157.97;;;16.10;31.03
72486;BME280;60509;47.308;-122.428;2023-05-03T12:08:51;100160.19;;;16.49;30.85
72486;BME280;60509;47.308;-122.428;2023-05-03T12:11:17;100158.28;;;16.37;30.79
72486;BME280;60509;47.308;-122.428;2023-05-03T12:13:43;100158.34;;;16.42;30.79
72486;BME280;60509;47.308;-122.428;2023-05-03T12:16:10;100159.08;;;16.01;31.14